首页
METAR-TAF:

METAR-TAF

机场 :

西雅圖-塔科馬國際機場

西雅圖 / 塔科马, 华盛顿, 美国

纬度: 47-26-41N, 经度: 122-18-49W, 海拔: 130米

当前天气观测

该预报发布于35分钟前的10:53 UTC
静风
温度 8°C
湿度 93%
气压 1032 hPa
能見度: 4.8公里
阴天层高于300英尺
小雨, 轻雾

METAR: KSEA 241053Z 00000KT 3SM -RA BR OVC003 08/07 A3048 RMK AO2 PRESFR SLP330 P0002 T00780067

时间: 03:28 (11:28 UTC)

预报

该预报发布于2小时和27分钟前的09:01 UTC
预报有效从24日的 09点(UTC)到 25日的 12点(UTC)
风速节,风向
能見度: 10公里
散云层高于800英尺
多云层高于1300英尺
阴天层高于2000英尺
附近有阵雨
短暂存在
从 24日的 09点(UTC)到 24日的 13点(UTC)
能見度: 1.6公里
多云层高于400英尺
小毛毛雨
从 24日的 1300点(UTC)
风速3节,风向多变
能見度: 10公里
散云层高于300英尺
多云层高于600英尺
阴天层高于1200英尺
从 24日的 1800点(UTC)
风速3节,风向多变
能見度: 10公里
散云层高于800英尺
多云层高于1500英尺
阴天层高于3000英尺
从 24日的 2200点(UTC)
风速3节,风向多变
能見度: 10公里
散云层高于2500英尺
多云层高于4000英尺
从 25日的 0800点(UTC)
风速3节,风向多变
能見度: 8.0公里
阴天层高于600英尺
轻雾

TAF: KSEA 240901Z 2409/2512 00000KT P6SM VCSH SCT008 BKN013 OVC020 TEMPO 2409/2413 1SM -DZ BKN004 FM241300 VRB03KT P6SM SCT003 BKN006 OVC012 FM241800 VRB03KT P6SM SCT008 BKN015 OVC030 FM242200 VRB03KT P6SM SCT025 BKN040 FM250800 VRB03KT 5SM BR OVC006

超过4000个机场的气象观测和天气预报(METAR&TAF报告)。

可查询的气象台以黄色和红色小点在地图上表示。

将鼠标移到小点上方,可查看气象台名称。

然后点击查看天气观测和预报。

如需切换地图:点击带黑十字的绿色按钮放大地图;点击带横线的绿色按钮缩小地图;或者点击绿色箭头查看邻近地区的地图。


METAR-TAF: